Time;durP1;ratioP1;P1;durP2;ratioP2;P2;SDS_P1;SDS_P2;PMS_P1;PMS_P2;Temp;Humidity;BMP_temperature;BMP_pressure;BME280_temperature;BME280_humidity;BME280_pressure;Samples;Min_cycle;Max_cycle;Signal;HPM_P1;HPM_P2
2021/03/18 00:00:26;;;;;;;4.90;4.25;;;7.80;99.90;;;;;;5069754;28;20241;-82
2021/03/18 00:02:53;;;;;;;6.00;4.10;;;7.80;99.90;;;;;;5070254;28;20702;-84
2021/03/18 00:05:19;;;;;;;5.28;4.78;;;7.70;99.90;;;;;;5084463;28;20584;-84
2021/03/18 00:07:46;;;;;;;5.07;3.85;;;7.70;99.90;;;;;;5089162;28;20221;-84
2021/03/18 00:10:13;;;;;;;4.15;3.75;;;7.60;99.90;;;;;;5074643;28;20244;-85
2021/03/18 00:12:41;;;;;;;5.60;4.00;;;7.60;99.90;;;;;;5080476;28;20233;-86
2021/03/18 00:15:09;;;;;;;6.72;4.85;;;7.70;99.90;;;;;;5073790;28;20553;-84
2021/03/18 00:17:36;;;;;;;4.88;4.40;;;7.70;99.90;;;;;;5083617;28;20715;-83
2021/03/18 00:20:05;;;;;;;5.72;4.35;;;7.70;99.90;;;;;;5079812;28;20194;-80
2021/03/18 00:22:31;;;;;;;4.53;4.10;;;7.70;99.90;;;;;;5087102;28;20196;-80
2021/03/18 00:24:58;;;;;;;4.47;4.07;;;7.70;99.90;;;;;;5081740;28;20229;-80
2021/03/18 00:27:24;;;;;;;5.25;4.20;;;7.70;99.90;;;;;;5084905;28;20218;-81
2021/03/18 00:29:51;;;;;;;4.30;3.40;;;7.60;99.90;;;;;;5069669;28;20194;-81
2021/03/18 00:32:17;;;;;;;4.50;4.15;;;7.70;99.90;;;;;;5069973;28;20244;-80
2021/03/18 00:34:43;;;;;;;3.92;3.60;;;7.60;99.90;;;;;;5070013;28;20214;-80
2021/03/18 00:37:10;;;;;;;7.05;3.88;;;7.70;99.90;;;;;;5070494;28;20221;-81
2021/03/18 00:39:36;;;;;;;4.57;3.70;;;7.70;99.90;;;;;;5069846;28;20240;-81
2021/03/18 00:42:03;;;;;;;9.13;4.18;;;7.70;99.90;;;;;;5072043;28;20222;-81
2021/03/18 00:44:29;;;;;;;4.78;4.35;;;7.70;99.90;;;;;;5076382;28;20249;-81
2021/03/18 00:46:56;;;;;;;4.15;3.80;;;7.80;99.90;;;;;;5079190;28;20560;-81
2021/03/18 00:49:22;;;;;;;5.47;4.18;;;7.70;99.90;;;;;;5083662;28;20206;-81
2021/03/18 00:51:48;;;;;;;7.28;4.10;;;7.70;99.90;;;;;;5082005;28;20214;-81
2021/03/18 00:54:15;;;;;;;5.63;3.65;;;7.70;99.90;;;;;;5078694;28;20214;-81
2021/03/18 00:56:41;;;;;;;4.30;3.90;;;7.70;99.90;;;;;;5073082;28;20248;-81
2021/03/18 00:59:07;;;;;;;5.07;3.60;;;7.60;99.90;;;;;;5074194;28;20194;-81
2021/03/18 01:01:35;;;;;;;5.07;4.30;;;7.60;99.90;;;;;;5080730;28;20745;-81
2021/03/18 01:04:04;;;;;;;4.13;3.67;;;7.60;99.90;;;;;;5074863;28;20232;-81
2021/03/18 01:06:31;;;;;;;4.03;3.63;;;7.60;99.90;;;;;;5073917;28;20220;-80
2021/03/18 01:08:59;;;;;;;4.85;4.18;;;7.70;99.90;;;;;;5073211;28;20197;-81
2021/03/18 01:11:27;;;;;;;4.25;3.88;;;7.60;99.90;;;;;;5073374;28;20327;-81
2021/03/18 01:13:56;;;;;;;3.97;3.60;;;7.60;99.90;;;;;;5077062;28;20201;-80
2021/03/18 01:16:27;;;;;;;6.30;4.22;;;7.60;99.90;;;;;;5077827;28;20221;-80
2021/03/18 01:18:55;;;;;;;7.53;4.43;;;7.60;99.90;;;;;;5077967;28;20182;-80
2021/03/18 01:21:26;;;;;;;5.43;4.10;;;7.60;99.90;;;;;;5092528;28;20229;-80
2021/03/18 01:23:52;;;;;;;4.60;4.00;;;7.60;99.90;;;;;;5091746;28;20198;-81
2021/03/18 01:26:19;;;;;;;4.57;3.88;;;7.60;99.90;;;;;;5089062;28;20290;-82
2021/03/18 01:28:45;;;;;;;5.43;4.20;;;7.60;99.90;;;;;;5091999;28;20185;-82
2021/03/18 01:31:12;;;;;;;3.80;3.50;;;7.60;99.90;;;;;;5077384;28;20210;-82
2021/03/18 01:33:41;;;;;;;6.03;4.60;;;7.50;99.90;;;;;;5082455;28;20228;-81
2021/03/18 01:36:11;;;;;;;5.28;3.55;;;7.50;99.90;;;;;;5081912;28;20218;-81
2021/03/18 01:38:38;;;;;;;5.60;4.18;;;7.50;99.90;;;;;;5075903;28;20210;-81
2021/03/18 01:41:05;;;;;;;4.95;4.05;;;7.50;99.90;;;;;;5092579;28;20213;-82
2021/03/18 01:43:32;;;;;;;3.92;3.40;;;7.50;99.90;;;;;;5092151;28;20279;-81
2021/03/18 01:45:58;;;;;;;5.88;4.10;;;7.50;99.90;;;;;;5081934;28;20214;-81
2021/03/18 01:48:25;;;;;;;4.95;4.45;;;7.50;99.90;;;;;;5073518;28;20732;-81
2021/03/18 01:50:52;;;;;;;4.25;3.85;;;7.50;99.90;;;;;;5079915;28;20297;-81
2021/03/18 01:53:20;;;;;;;6.00;4.25;;;7.40;99.90;;;;;;5078542;28;20275;-80
2021/03/18 01:55:48;;;;;;;4.97;3.67;;;7.50;99.90;;;;;;5072206;28;20539;-81
2021/03/18 01:58:16;;;;;;;5.93;4.30;;;7.50;99.90;;;;;;5072699;28;20194;-83
2021/03/18 02:00:44;;;;;;;4.28;3.88;;;7.60;99.90;;;;;;5075914;28;20209;-81
2021/03/18 02:03:11;;;;;;;4.03;3.47;;;7.50;99.90;;;;;;5081996;28;20732;-81
2021/03/18 02:05:37;;;;;;;5.28;4.72;;;7.40;99.90;;;;;;5073144;28;20226;-81
2021/03/18 02:08:06;;;;;;;6.00;4.13;;;7.40;99.90;;;;;;5089106;28;20212;-81
2021/03/18 02:10:35;;;;;;;6.80;4.30;;;7.40;99.90;;;;;;5090970;28;20683;-81
2021/03/18 02:13:04;;;;;;;5.53;4.50;;;7.40;99.90;;;;;;5090615;28;20871;-81
2021/03/18 02:15:33;;;;;;;5.40;4.32;;;7.40;99.90;;;;;;5085954;28;20236;-81
2021/03/18 02:18:06;;;;;;;5.68;4.22;;;7.40;99.90;;;;;;5072434;28;20194;-81
2021/03/18 02:21:11;;;;;;;7.68;4.63;;;7.40;99.90;;;;;;5077426;28;20226;-83
2021/03/18 02:24:07;;;;;;;6.63;4.70;;;7.40;99.90;;;;;;5071882;28;20220;-83
2021/03/18 02:27:07;;;;;;;4.35;3.95;;;7.50;99.90;;;;;;5074385;28;20270;-83
2021/03/18 02:30:21;;;;;;;7.78;3.92;;;7.40;99.90;;;;;;5062434;28;20209;-83
2021/03/18 02:33:10;;;;;;;5.57;4.68;;;7.40;99.90;;;;;;5071453;28;20346;-83
2021/03/18 02:35:43;;;;;;;4.78;4.28;;;7.40;99.90;;;;;;5075077;28;20251;-83
2021/03/18 02:38:12;;;;;;;6.05;4.03;;;7.40;99.90;;;;;;5092125;28;20182;-82
2021/03/18 02:40:42;;;;;;;4.57;4.18;;;7.30;99.90;;;;;;5091654;28;20263;-82
2021/03/18 02:43:12;;;;;;;5.28;4.78;;;7.30;99.90;;;;;;5090738;28;20221;-82
2021/03/18 02:45:43;;;;;;;5.47;4.35;;;7.30;99.90;;;;;;5082913;28;20226;-82
2021/03/18 02:48:12;;;;;;;3.65;3.25;;;7.30;99.90;;;;;;5075145;28;20705;-82
2021/03/18 02:50:40;;;;;;;4.65;3.78;;;7.30;99.90;;;;;;5075832;28;20232;-81
2021/03/18 02:53:08;;;;;;;4.32;3.70;;;7.30;99.90;;;;;;5089838;28;20750;-82
2021/03/18 02:55:37;;;;;;;6.50;4.65;;;7.30;99.90;;;;;;5090808;28;20220;-82
2021/03/18 02:58:05;;;;;;;5.50;3.63;;;7.30;99.90;;;;;;5091321;28;20202;-81
2021/03/18 03:00:33;;;;;;;4.05;3.35;;;7.20;99.90;;;;;;5073179;28;20693;-82
2021/03/18 03:03:00;;;;;;;7.97;4.20;;;7.30;99.90;;;;;;5070555;28;20229;-81
2021/03/18 03:05:27;;;;;;;7.78;4.65;;;7.30;99.90;;;;;;5071766;28;20221;-81
2021/03/18 03:07:55;;;;;;;6.32;4.30;;;7.20;99.90;;;;;;5075637;28;20194;-83
2021/03/18 03:10:23;;;;;;;5.65;4.30;;;7.30;99.90;;;;;;5071457;28;20186;-83
2021/03/18 03:12:51;;;;;;;6.72;4.55;;;7.20;99.90;;;;;;5076343;28;20217;-84
2021/03/18 03:15:19;;;;;;;4.28;3.88;;;7.20;99.90;;;;;;5086497;28;20194;-83
2021/03/18 03:17:47;;;;;;;3.65;3.35;;;7.20;99.90;;;;;;5071350;28;20247;-83
2021/03/18 03:20:15;;;;;;;5.55;4.30;;;7.20;99.90;;;;;;5077686;28;20229;-83
2021/03/18 03:22:43;;;;;;;4.72;3.95;;;7.20;99.90;;;;;;5074775;28;20270;-82
2021/03/18 03:25:15;;;;;;;4.25;3.15;;;7.10;99.90;;;;;;5090078;28;20352;-83
2021/03/18 03:27:44;;;;;;;8.40;3.85;;;7.10;99.90;;;;;;5090768;28;20637;-82
2021/03/18 03:30:12;;;;;;;4.72;4.18;;;7.10;99.90;;;;;;5083674;28;20225;-83
2021/03/18 03:32:38;;;;;;;4.43;3.75;;;7.20;99.90;;;;;;5074513;28;20206;-83
2021/03/18 03:35:07;;;;;;;4.80;4.30;;;7.10;99.90;;;;;;5070613;28;20218;-83
2021/03/18 03:37:35;;;;;;;4.82;3.75;;;7.10;99.90;;;;;;5071540;28;20194;-84
2021/03/18 03:40:03;;;;;;;4.18;3.78;;;7.20;99.90;;;;;;5082504;28;20213;-83
2021/03/18 03:42:30;;;;;;;6.45;4.20;;;7.20;99.90;;;;;;5078004;28;20202;-83
2021/03/18 03:44:56;;;;;;;4.93;3.95;;;7.10;99.90;;;;;;5083105;28;20244;-82
2021/03/18 03:47:22;;;;;;;5.88;4.10;;;7.10;99.90;;;;;;5090667;28;20298;-83
2021/03/18 03:49:49;;;;;;;4.85;4.35;;;7.10;99.90;;;;;;5089728;28;20237;-84
2021/03/18 03:52:22;;;;;;;4.95;4.28;;;7.10;99.90;;;;;;5083684;28;20198;-84
2021/03/18 03:54:57;;;;;;;5.25;3.95;;;7.10;99.90;;;;;;5089178;28;20209;-83
2021/03/18 03:57:26;;;;;;;5.03;4.07;;;7.10;99.90;;;;;;5071825;28;20217;-83
2021/03/18 03:59:57;;;;;;;4.22;3.55;;;7.10;99.90;;;;;;5070367;28;20267;-82
2021/03/18 04:02:25;;;;;;;4.80;4.40;;;7.10;99.90;;;;;;5080519;28;20221;-83
2021/03/18 04:04:51;;;;;;;8.43;4.30;;;7.00;99.90;;;;;;5074257;28;20236;-83
2021/03/18 04:07:21;;;;;;;4.68;4.28;;;7.10;99.90;;;;;;5072457;28;20240;-83
2021/03/18 04:09:48;;;;;;;3.83;3.45;;;7.10;99.90;;;;;;5070369;28;20217;-82
2021/03/18 04:12:18;;;;;;;3.97;3.58;;;7.00;99.90;;;;;;5070725;28;20217;-82
2021/03/18 04:14:49;;;;;;;3.45;3.15;;;7.00;99.90;;;;;;5083880;28;20278;-83
2021/03/18 04:17:17;;;;;;;6.05;3.65;;;7.00;99.90;;;;;;5092344;28;20184;-82
2021/03/18 04:19:49;;;;;;;4.25;3.83;;;7.00;99.90;;;;;;5093080;28;20186;-83
2021/03/18 04:22:17;;;;;;;5.20;4.03;;;7.00;99.90;;;;;;5093000;28;20224;-83
2021/03/18 04:24:46;;;;;;;4.78;4.05;;;6.90;99.90;;;;;;5081584;28;20263;-83
2021/03/18 04:27:13;;;;;;;4.75;4.22;;;7.00;99.90;;;;;;5093368;28;20214;-83
2021/03/18 04:29:40;;;;;;;4.20;3.80;;;7.00;99.90;;;;;;5083475;28;20221;-82
2021/03/18 04:32:07;;;;;;;4.47;4.07;;;6.90;99.90;;;;;;5093792;28;20555;-82
2021/03/18 04:34:35;;;;;;;4.38;3.97;;;7.00;99.90;;;;;;5085799;28;20577;-84
2021/03/18 04:37:07;;;;;;;4.32;3.63;;;7.00;99.90;;;;;;5093469;28;20221;-84
2021/03/18 04:39:34;;;;;;;4.30;3.90;;;6.90;99.90;;;;;;5085795;28;20214;-84
2021/03/18 04:42:02;;;;;;;4.07;3.58;;;6.90;99.90;;;;;;5074374;28;20197;-84
2021/03/18 04:44:29;;;;;;;5.53;4.10;;;6.90;99.90;;;;;;5073514;28;20210;-79
2021/03/18 04:46:56;;;;;;;7.53;4.20;;;6.90;99.90;;;;;;5083640;28;20614;-82
2021/03/18 04:49:24;;;;;;;6.57;4.72;;;6.90;99.90;;;;;;5093655;28;20210;-82
2021/03/18 04:51:52;;;;;;;7.78;3.80;;;6.90;99.90;;;;;;5091363;28;20688;-79
2021/03/18 04:54:18;;;;;;;3.85;3.45;;;6.90;99.90;;;;;;5088150;28;20197;-83
2021/03/18 04:56:46;;;;;;;4.45;4.05;;;6.90;99.90;;;;;;5094201;28;20248;-83
2021/03/18 04:59:14;;;;;;;5.75;4.40;;;6.90;99.90;;;;;;5080755;28;20222;-82
2021/03/18 05:01:43;;;;;;;5.65;4.60;;;6.90;99.90;;;;;;5084939;28;20210;-83
2021/03/18 05:04:10;;;;;;;6.07;3.67;;;6.90;99.90;;;;;;5093663;28;20190;-83
2021/03/18 05:06:37;;;;;;;6.10;4.22;;;6.90;99.90;;;;;;5089771;28;20228;-85
2021/03/18 05:09:05;;;;;;;4.15;3.75;;;6.70;99.90;;;;;;5090477;28;20210;-84
2021/03/18 05:11:32;;;;;;;6.05;4.45;;;6.80;99.90;;;;;;5074741;28;20215;-83
2021/03/18 05:13:59;;;;;;;3.70;3.40;;;6.80;99.90;;;;;;5075400;28;20201;-84
2021/03/18 05:16:26;;;;;;;6.50;4.68;;;6.80;99.90;;;;;;5079144;28;20218;-84
2021/03/18 05:18:52;;;;;;;6.28;4.40;;;6.80;99.90;;;;;;5076650;28;20198;-84
2021/03/18 05:21:19;;;;;;;5.15;4.43;;;6.70;99.90;;;;;;5092028;28;20221;-84
2021/03/18 05:23:46;;;;;;;4.45;3.97;;;6.80;99.90;;;;;;5073543;28;20263;-83
2021/03/18 05:26:13;;;;;;;5.45;4.60;;;6.80;99.90;;;;;;5072640;28;20222;-82
2021/03/18 05:28:40;;;;;;;6.82;4.45;;;6.80;99.90;;;;;;5072450;28;20218;-83
2021/03/18 05:31:06;;;;;;;5.88;4.68;;;6.70;99.90;;;;;;5078383;28;20213;-83
2021/03/18 05:33:32;;;;;;;6.93;4.60;;;6.70;99.90;;;;;;5088387;28;20206;-82
2021/03/18 05:35:58;;;;;;;3.65;3.33;;;6.70;99.90;;;;;;5076352;28;20263;-83
2021/03/18 05:38:25;;;;;;;4.80;3.97;;;6.70;99.90;;;;;;5078433;28;20218;-83
2021/03/18 05:40:54;;;;;;;6.32;4.63;;;6.80;99.90;;;;;;5072636;28;20199;-82
2021/03/18 05:43:22;;;;;;;12.63;5.32;;;6.70;99.90;;;;;;5072202;28;20674;-81
2021/03/18 05:45:48;;;;;;;5.78;4.03;;;6.60;99.90;;;;;;5091555;28;20247;-82
2021/03/18 05:48:15;;;;;;;7.00;5.38;;;6.70;99.90;;;;;;5085167;28;20217;-82
2021/03/18 05:50:43;;;;;;;8.75;4.10;;;6.70;99.90;;;;;;5076356;28;20221;-81
2021/03/18 05:53:11;;;;;;;9.38;4.53;;;6.70;99.90;;;;;;5077627;28;20192;-81
2021/03/18 05:55:37;;;;;;;5.70;4.93;;;6.70;99.90;;;;;;5072446;28;20215;-82
2021/03/18 05:58:04;;;;;;;6.18;4.43;;;6.60;99.90;;;;;;5089946;28;20217;-82
2021/03/18 06:00:35;;;;;;;4.45;4.05;;;6.70;99.90;;;;;;5090525;28;20213;-83
2021/03/18 06:03:01;;;;;;;8.07;5.28;;;6.70;99.90;;;;;;5091887;28;20208;-82
2021/03/18 06:05:27;;;;;;;6.00;4.28;;;6.70;99.90;;;;;;5087002;28;20217;-82
2021/03/18 06:07:54;;;;;;;8.23;5.65;;;6.70;99.90;;;;;;5090188;28;20212;-82
2021/03/18 06:10:21;;;;;;;6.80;4.35;;;6.70;99.90;;;;;;5072028;28;20219;-83
2021/03/18 06:12:49;;;;;;;4.75;4.20;;;6.70;99.90;;;;;;5077854;28;20196;-83
2021/03/18 06:15:16;;;;;;;5.55;3.88;;;6.70;99.90;;;;;;5090496;28;20221;-81
2021/03/18 06:17:45;;;;;;;5.47;4.25;;;6.70;99.90;;;;;;5072130;28;20190;-81
2021/03/18 06:20:15;;;;;;;4.88;4.38;;;6.70;99.90;;;;;;5071745;28;20720;-82
2021/03/18 06:22:43;;;;;;;5.00;3.85;;;6.60;99.90;;;;;;5081187;28;20198;-82
2021/03/18 06:25:21;;;;;;;9.45;4.18;;;6.70;99.90;;;;;;5085708;28;20217;-80
2021/03/18 06:27:47;;;;;;;5.90;4.13;;;6.70;99.90;;;;;;5071249;28;20209;-82
2021/03/18 06:30:15;;;;;;;5.32;3.58;;;6.70;99.90;;;;;;5071800;28;20218;-81
2021/03/18 06:32:41;;;;;;;4.28;3.88;;;6.60;99.90;;;;;;5071515;28;20191;-82
2021/03/18 06:35:11;;;;;;;5.03;4.40;;;6.70;99.90;;;;;;5081133;28;20229;-82
2021/03/18 06:37:40;;;;;;;4.60;4.15;;;6.70;99.90;;;;;;5074610;28;20233;-82
2021/03/18 06:40:16;;;;;;;5.10;4.60;;;6.70;99.90;;;;;;5070409;28;20263;-82
2021/03/18 06:42:52;;;;;;;5.50;4.20;;;6.70;99.90;;;;;;5071171;28;20300;-81
2021/03/18 06:45:19;;;;;;;3.90;3.45;;;6.70;99.90;;;;;;5085106;28;20688;-82
2021/03/18 06:47:48;;;;;;;3.85;3.45;;;6.70;99.90;;;;;;5075199;28;20201;-81
2021/03/18 06:50:19;;;;;;;8.88;4.15;;;6.80;99.90;;;;;;5071561;28;20221;-81
2021/03/18 06:52:46;;;;;;;7.10;3.97;;;6.70;99.90;;;;;;5085792;28;20344;-83
2021/03/18 06:55:25;;;;;;;4.28;3.58;;;6.70;99.90;;;;;;5087963;28;20347;-81
2021/03/18 06:58:13;;;;;;;4.50;4.10;;;6.70;99.90;;;;;;5071280;28;20275;-80
2021/03/18 07:00:40;;;;;;;4.72;4.20;;;6.70;99.90;;;;;;5071503;28;20260;-81
2021/03/18 07:03:08;;;;;;;5.93;4.00;;;6.80;99.90;;;;;;5091149;28;20200;-81
2021/03/18 07:05:39;;;;;;;4.78;3.45;;;6.70;99.90;;;;;;5082297;28;20218;-81
2021/03/18 07:08:20;;;;;;;6.00;3.67;;;6.70;99.90;;;;;;5071010;28;20210;-80
2021/03/18 07:10:47;;;;;;;9.27;4.43;;;6.70;99.90;;;;;;5070679;28;20243;-81
2021/03/18 07:13:18;;;;;;;5.82;4.10;;;6.70;99.90;;;;;;5070782;28;20263;-80
2021/03/18 07:15:45;;;;;;;8.07;4.65;;;6.80;99.90;;;;;;5071464;28;20250;-75
2021/03/18 07:18:12;;;;;;;5.43;3.13;;;6.90;99.90;;;;;;5090284;28;20213;-75
2021/03/18 07:20:55;;;;;;;7.22;3.45;;;6.80;99.90;;;;;;5090455;28;20233;-75
2021/03/18 07:23:31;;;;;;;6.50;4.00;;;6.70;99.90;;;;;;5083139;28;20217;-76
2021/03/18 07:25:57;;;;;;;3.92;3.47;;;6.80;99.90;;;;;;5074953;28;20239;-75
2021/03/18 07:28:24;;;;;;;5.53;4.38;;;6.80;99.90;;;;;;5080655;28;20209;-75
2021/03/18 07:30:51;;;;;;;4.70;3.42;;;6.80;99.90;;;;;;5088800;28;20322;-75
2021/03/18 07:33:19;;;;;;;11.05;3.55;;;6.80;99.90;;;;;;5078586;28;20213;-76
2021/03/18 07:35:46;;;;;;;5.97;4.43;;;6.80;99.90;;;;;;5090243;28;20266;-75
2021/03/18 07:38:13;;;;;;;5.80;4.20;;;6.90;99.90;;;;;;5077629;28;20197;-76
2021/03/18 07:40:39;;;;;;;5.40;3.90;;;6.90;99.90;;;;;;5072949;28;20597;-80
2021/03/18 07:43:05;;;;;;;4.78;3.75;;;6.80;99.90;;;;;;5079917;28;20225;-80
2021/03/18 07:45:32;;;;;;;6.32;3.70;;;6.90;99.90;;;;;;5083065;28;20228;-81
2021/03/18 07:47:59;;;;;;;4.82;3.47;;;6.90;99.90;;;;;;5081080;28;20214;-81
2021/03/18 07:50:29;;;;;;;4.30;3.88;;;6.90;99.90;;;;;;5087161;28;20270;-80
2021/03/18 07:52:59;;;;;;;7.15;4.07;;;6.90;99.90;;;;;;5079004;28;20892;-79
2021/03/18 07:55:26;;;;;;;4.65;3.67;;;6.90;99.90;;;;;;5076743;28;20232;-79
2021/03/18 07:57:52;;;;;;;6.70;3.85;;;6.90;99.90;;;;;;5082674;28;20236;-79
2021/03/18 08:00:22;;;;;;;4.40;3.53;;;6.90;99.90;;;;;;5089075;28;20193;-80
2021/03/18 08:02:48;;;;;;;5.40;4.22;;;6.90;99.90;;;;;;5076347;28;20511;-80
2021/03/18 08:05:36;;;;;;;8.63;4.10;;;7.00;99.90;;;;;;5093211;28;20213;-79
2021/03/18 08:08:03;;;;;;;5.32;3.53;;;7.00;99.90;;;;;;5086932;28;20198;-79
2021/03/18 08:10:42;;;;;;;8.02;5.50;;;7.10;99.90;;;;;;5074523;28;20197;-79
2021/03/18 08:13:08;;;;;;;5.95;3.80;;;7.00;99.90;;;;;;5082619;28;20209;-79
2021/03/18 08:15:44;;;;;;;5.00;4.50;;;7.00;99.90;;;;;;5080259;28;20274;-79
2021/03/18 08:18:38;;;;;;;5.85;3.70;;;7.00;99.90;;;;;;5091077;28;20186;-79
2021/03/18 08:21:06;;;;;;;5.70;3.75;;;7.00;99.90;;;;;;5083591;28;20226;-79
2021/03/18 08:23:46;;;;;;;8.25;3.35;;;7.10;99.90;;;;;;5086219;28;20221;-79
2021/03/18 08:26:33;;;;;;;9.70;3.90;;;7.10;99.90;;;;;;5073637;28;20689;-79
2021/03/18 08:29:01;;;;;;;5.88;3.30;;;7.10;99.90;;;;;;5077014;28;20221;-79
2021/03/18 08:31:53;;;;;;;4.30;3.65;;;7.10;99.90;;;;;;5085556;28;20198;-82
2021/03/18 08:34:21;;;;;;;6.32;3.63;;;7.10;99.90;;;;;;5087609;28;20210;-79
2021/03/18 08:36:56;;;;;;;7.00;3.90;;;7.10;99.90;;;;;;5073755;28;20202;-79
2021/03/18 08:39:46;;;;;;;8.18;3.88;;;7.10;99.90;;;;;;5073668;28;20217;-79
2021/03/18 08:42:49;;;;;;;4.80;3.40;;;7.10;99.90;;;;;;5069685;28;20622;-79
2021/03/18 08:45:42;;;;;;;6.10;3.95;;;7.10;99.90;;;;;;5090746;28;20228;-79
2021/03/18 08:48:19;;;;;;;6.93;4.35;;;7.10;99.90;;;;;;5093771;28;20753;-79
2021/03/18 08:50:51;;;;;;;4.25;3.83;;;7.10;99.90;;;;;;5091872;28;20338;-76
2021/03/18 08:53:36;;;;;;;7.65;4.75;;;7.10;99.90;;;;;;5089408;28;20230;-76
2021/03/18 08:56:07;;;;;;;4.05;3.45;;;7.10;99.90;;;;;;5073378;28;20226;-76
2021/03/18 08:58:47;;;;;;;9.00;4.70;;;7.10;99.90;;;;;;5073587;28;20260;-76
2021/03/18 09:01:19;;;;;;;6.00;4.43;;;7.10;99.90;;;;;;5072749;28;20198;-75
2021/03/18 09:03:45;;;;;;;6.43;4.50;;;7.10;99.90;;;;;;5077742;28;20213;-75
2021/03/18 09:06:11;;;;;;;3.50;2.90;;;7.10;99.90;;;;;;5072989;28;20217;-75
2021/03/18 09:08:37;;;;;;;8.88;4.50;;;7.10;99.90;;;;;;5087072;28;20816;-75
2021/03/18 09:11:05;;;;;;;10.07;5.22;;;7.20;99.90;;;;;;5077913;28;20198;-76
2021/03/18 09:13:36;;;;;;;6.68;4.45;;;7.20;99.90;;;;;;5073242;28;20190;-76
2021/03/18 09:16:03;;;;;;;10.48;4.85;;;7.20;99.90;;;;;;5082085;28;20217;-75
2021/03/18 09:18:31;;;;;;;7.07;5.68;;;7.20;99.90;;;;;;5091011;28;20181;-74
2021/03/18 09:21:02;;;;;;;8.05;4.70;;;7.30;99.90;;;;;;5093051;28;20229;-74
2021/03/18 09:23:29;;;;;;;6.60;4.97;;;7.30;99.90;;;;;;5082971;28;20214;-75
2021/03/18 09:25:57;;;;;;;6.18;4.32;;;7.30;99.90;;;;;;5075517;28;20240;-75
2021/03/18 09:28:25;;;;;;;5.10;4.10;;;7.30;99.90;;;;;;5083805;28;20263;-76
2021/03/18 09:30:54;;;;;;;9.85;4.35;;;7.40;99.90;;;;;;5082169;28;20221;-76
2021/03/18 09:33:24;;;;;;;6.32;4.43;;;7.40;99.90;;;;;;5079076;28;20614;-76
2021/03/18 09:35:52;;;;;;;8.80;5.15;;;7.40;99.90;;;;;;5079341;28;20201;-76
2021/03/18 09:38:20;;;;;;;6.38;4.57;;;7.40;99.90;;;;;;5076000;28;20220;-75
2021/03/18 09:40:47;;;;;;;10.23;5.57;;;7.40;99.90;;;;;;5080246;28;20221;-75
2021/03/18 09:43:15;;;;;;;6.03;4.75;;;7.40;99.90;;;;;;5081699;28;20225;-75
2021/03/18 09:45:57;;;;;;;6.82;5.13;;;7.40;99.90;;;;;;5089163;28;20229;-75
2021/03/18 09:48:25;;;;;;;6.32;4.88;;;7.30;99.90;;;;;;5072008;28;20205;-76
2021/03/18 09:50:53;;;;;;;7.38;4.15;;;7.40;99.90;;;;;;5072116;28;20210;-76
2021/03/18 09:53:19;;;;;;;7.18;4.93;;;7.40;99.90;;;;;;5072276;28;20752;-75
2021/03/18 09:55:46;;;;;;;6.20;4.90;;;7.40;99.90;;;;;;5072002;28;20267;-75
2021/03/18 09:58:14;;;;;;;7.50;5.18;;;7.30;99.90;;;;;;5072704;28;20661;-74
2021/03/18 10:00:41;;;;;;;8.32;5.43;;;7.40;99.90;;;;;;5072053;28;20763;-74
2021/03/18 10:03:08;;;;;;;6.10;4.00;;;7.40;99.90;;;;;;5072120;28;20206;-75
2021/03/18 10:05:35;;;;;;;6.68;5.57;;;7.40;99.90;;;;;;5081311;28;20226;-75
2021/03/18 10:08:03;;;;;;;9.63;5.45;;;7.50;99.90;;;;;;5083312;28;20250;-75
2021/03/18 10:10:30;;;;;;;6.20;5.60;;;7.50;99.90;;;;;;5076236;28;20206;-75
2021/03/18 10:12:57;;;;;;;11.77;5.60;;;7.50;99.90;;;;;;5076618;28;20212;-75
2021/03/18 10:15:25;;;;;;;5.20;4.70;;;7.40;99.90;;;;;;5084668;28;20218;-78
2021/03/18 10:17:54;;;;;;;13.43;9.20;;;7.40;99.90;;;;;;5086454;28;20201;-76
2021/03/18 10:20:25;;;;;;;15.35;8.45;;;7.20;99.90;;;;;;5075897;28;20283;-76
2021/03/18 10:22:58;;;;;;;12.32;7.00;;;7.30;99.90;;;;;;5088829;28;20214;-76
2021/03/18 10:25:27;;;;;;;9.38;7.32;;;7.40;99.90;;;;;;5093657;28;20205;-76
2021/03/18 10:28:00;;;;;;;12.40;8.45;;;7.40;99.90;;;;;;5087246;28;20304;-76
2021/03/18 10:30:27;;;;;;;15.85;8.70;;;7.40;99.90;;;;;;5090800;28;20225;-75
2021/03/18 10:33:03;;;;;;;11.68;6.68;;;7.30;99.90;;;;;;5090936;28;20214;-76
2021/03/18 10:35:31;;;;;;;11.40;7.18;;;7.40;99.90;;;;;;5080688;28;20742;-76
2021/03/18 10:37:58;;;;;;;8.73;5.78;;;7.40;99.90;;;;;;5080651;28;20214;-76
2021/03/18 10:40:26;;;;;;;12.43;7.00;;;7.50;99.90;;;;;;5085597;28;20700;-76
2021/03/18 10:42:56;;;;;;;9.55;6.78;;;7.50;99.90;;;;;;5075296;28;20565;-76
2021/03/18 10:45:29;;;;;;;12.05;6.85;;;7.60;99.90;;;;;;5082727;28;20801;-76
2021/03/18 10:47:58;;;;;;;14.60;6.15;;;7.60;99.90;;;;;;5088277;28;20193;-76
2021/03/18 10:50:27;;;;;;;8.45;5.78;;;7.60;99.90;;;;;;5078779;28;20271;-77
2021/03/18 10:53:00;;;;;;;16.73;7.03;;;7.60;99.90;;;;;;5071427;28;20214;-76
2021/03/18 10:55:30;;;;;;;7.03;5.57;;;7.60;99.90;;;;;;5086835;28;20221;-76
2021/03/18 10:58:02;;;;;;;9.70;6.55;;;7.60;99.90;;;;;;5071335;28;20239;-77
2021/03/18 11:00:31;;;;;;;12.07;6.65;;;7.60;99.90;;;;;;5073810;28;20544;-76
2021/03/18 11:02:59;;;;;;;8.38;6.53;;;7.60;99.90;;;;;;5075367;28;20214;-76
2021/03/18 11:05:30;;;;;;;11.93;6.05;;;7.60;99.90;;;;;;5076818;28;20353;-76
2021/03/18 11:07:58;;;;;;;8.27;4.97;;;7.60;99.90;;;;;;5091456;28;20198;-76
2021/03/18 11:10:29;;;;;;;9.13;5.97;;;7.60;99.90;;;;;;5074140;28;20219;-76
2021/03/18 11:12:58;;;;;;;8.30;6.45;;;7.70;99.90;;;;;;5082074;28;20225;-76
2021/03/18 11:15:24;;;;;;;6.47;5.03;;;7.60;99.90;;;;;;5071002;28;20198;-76
2021/03/18 11:18:03;;;;;;;9.00;6.13;;;7.70;99.90;;;;;;5072619;28;20198;-76
2021/03/18 11:20:34;;;;;;;10.43;6.18;;;7.70;99.90;;;;;;5082894;28;20232;-76
2021/03/18 11:23:02;;;;;;;8.88;5.40;;;7.80;99.90;;;;;;5086694;28;20299;-76
2021/03/18 11:25:28;;;;;;;6.63;4.88;;;7.70;99.90;;;;;;5070094;28;20218;-76
2021/03/18 11:27:55;;;;;;;5.60;4.85;;;7.80;99.90;;;;;;5070731;28;20236;-75
2021/03/18 11:30:29;;;;;;;8.48;5.22;;;7.80;99.90;;;;;;5088777;28;20213;-76
2021/03/18 11:33:15;;;;;;;5.65;4.85;;;7.80;99.90;;;;;;5090975;28;20197;-76
2021/03/18 11:35:44;;;;;;;13.82;8.38;;;7.80;99.90;;;;;;5074245;28;20225;-78
2021/03/18 11:38:12;;;;;;;14.45;10.45;;;7.80;99.90;;;;;;5077149;28;20547;-77
2021/03/18 11:40:39;;;;;;;16.67;9.55;;;7.70;99.90;;;;;;5069144;28;20214;-77
2021/03/18 11:43:06;;;;;;;12.93;8.60;;;7.70;99.90;;;;;;5078977;28;20189;-76
2021/03/18 11:45:35;;;;;;;13.75;8.52;;;7.80;99.90;;;;;;5080631;28;20221;-76
2021/03/18 11:48:02;;;;;;;12.20;7.80;;;7.90;99.90;;;;;;5078788;28;20221;-76
2021/03/18 11:50:28;;;;;;;14.43;7.38;;;7.90;99.90;;;;;;5077015;28;20206;-76
2021/03/18 11:52:55;;;;;;;9.38;6.75;;;8.00;99.90;;;;;;5073220;28;20915;-76
2021/03/18 11:55:23;;;;;;;15.23;7.45;;;8.10;99.90;;;;;;5083053;28;20194;-76
2021/03/18 11:57:54;;;;;;;9.93;6.13;;;8.10;99.90;;;;;;5086853;28;20189;-77
2021/03/18 12:00:22;;;;;;;9.02;6.32;;;8.10;99.90;;;;;;5078330;28;20263;-76
2021/03/18 12:02:48;;;;;;;10.18;6.22;;;8.20;99.90;;;;;;5074800;28;20218;-75
2021/03/18 12:05:15;;;;;;;11.70;7.10;;;8.20;99.90;;;;;;5078033;28;20277;-76
2021/03/18 12:07:41;;;;;;;12.02;6.72;;;8.20;99.90;;;;;;5086469;28;20221;-77
2021/03/18 12:10:08;;;;;;;10.57;6.80;;;8.30;99.90;;;;;;5080374;28;20210;-76
2021/03/18 12:12:35;;;;;;;6.25;5.22;;;8.30;99.90;;;;;;5078296;28;20221;-76
2021/03/18 12:15:01;;;;;;;10.82;6.00;;;8.20;99.90;;;;;;5083402;28;20217;-76
2021/03/18 12:17:27;;;;;;;13.80;5.53;;;8.30;99.90;;;;;;5073362;28;20221;-76
2021/03/18 12:19:53;;;;;;;6.90;5.22;;;8.30;99.90;;;;;;5069294;28;20224;-77
2021/03/18 12:22:19;;;;;;;7.13;5.10;;;8.40;99.90;;;;;;5074573;28;20258;-76
2021/03/18 12:24:46;;;;;;;9.98;5.03;;;8.50;99.90;;;;;;5080182;28;20266;-77
2021/03/18 12:27:12;;;;;;;10.07;4.43;;;8.50;99.90;;;;;;5082337;28;20785;-77
2021/03/18 12:29:39;;;;;;;8.20;5.22;;;8.50;99.90;;;;;;5082332;28;20210;-76
2021/03/18 12:32:05;;;;;;;8.20;5.47;;;8.50;99.90;;;;;;5069339;28;20217;-76
2021/03/18 12:34:31;;;;;;;9.95;4.85;;;8.50;99.90;;;;;;5069481;28;20223;-77
2021/03/18 12:36:58;;;;;;;6.57;3.92;;;8.60;99.90;;;;;;5074299;28;20225;-77
2021/03/18 12:39:24;;;;;;;5.45;4.03;;;8.60;99.90;;;;;;5088286;28;20221;-77
2021/03/18 12:41:50;;;;;;;9.77;5.30;;;8.60;99.90;;;;;;5088005;28;20224;-76
2021/03/18 12:44:16;;;;;;;5.15;4.10;;;8.70;99.90;;;;;;5093849;28;20221;-76
2021/03/18 12:46:44;;;;;;;6.63;4.50;;;8.70;99.90;;;;;;5080348;28;20237;-76
2021/03/18 12:49:10;;;;;;;7.05;4.10;;;8.80;99.90;;;;;;5079321;28;20207;-76
2021/03/18 12:51:37;;;;;;;6.13;3.97;;;8.80;99.90;;;;;;5074139;28;20271;-77
2021/03/18 12:54:03;;;;;;;5.82;3.40;;;8.70;99.90;;;;;;5077493;28;20222;-77
2021/03/18 12:56:29;;;;;;;6.13;3.92;;;8.80;99.90;;;;;;5075033;28;20545;-76
2021/03/18 12:58:55;;;;;;;4.70;3.83;;;8.80;99.90;;;;;;5084695;28;20213;-77
2021/03/18 13:01:22;;;;;;;4.45;3.22;;;8.80;99.90;;;;;;5087406;28;20210;-76
2021/03/18 13:03:49;;;;;;;3.90;3.00;;;8.80;99.90;;;;;;5081367;28;20200;-76
2021/03/18 13:06:15;;;;;;;3.33;2.97;;;8.80;99.90;;;;;;5081722;28;20233;-76